Time;durP1;ratioP1;P1;durP2;ratioP2;P2;SDS_P1;SDS_P2;PMS_P1;PMS_P2;Temp;Humidity;BMP_temperature;BMP_pressure;BME280_temperature;BME280_humidity;BME280_pressure;Samples;Min_cycle;Max_cycle;Signal;HPM_P1;HPM_P2
2021/12/19 00:02:19;;;;;;;9.70;3.70;;;;;;;;;;5062928;28;20067;-57
2021/12/19 00:08:27;;;;;;;;;;;;;;;;;;5066334;28;20082;-57
2021/12/19 00:10:27;;;;;;;11.48;3.75;;;;;;;;;;5065414;28;20055;-58
2021/12/19 00:12:56;;;;;;;11.48;4.40;;;;;;;;;;5061341;28;20118;-58
2021/12/19 00:15:22;;;;;;;8.10;3.00;;;;;;;;;;5065009;28;20078;-58
2021/12/19 00:17:49;;;;;;;13.85;4.60;;;;;;;;;;5061108;28;20053;-58
2021/12/19 00:20:15;;;;;;;8.68;3.40;;;;;;;;;;5065301;28;20075;-57
2021/12/19 00:22:46;;;;;;;13.32;4.28;;;;;;;;;;5061717;28;20052;-57
2021/12/19 00:25:13;;;;;;;10.70;3.72;;;;;;;;;;5066195;28;20605;-57
2021/12/19 00:27:39;;;;;;;13.10;4.53;;;;;;;;;;5062207;28;20159;-57
2021/12/19 00:30:06;;;;;;;11.88;4.07;;;;;;;;;;5065553;28;20052;-58
2021/12/19 00:32:33;;;;;;;17.02;4.35;;;;;;;;;;5061689;28;20059;-58
2021/12/19 00:34:59;;;;;;;11.55;3.97;;;;;;;;;;5065486;28;20088;-57
2021/12/19 00:37:26;;;;;;;16.85;5.35;;;;;;;;;;5065614;28;20057;-58
2021/12/19 00:39:53;;;;;;;15.60;5.45;;;;;;;;;;5065123;28;20053;-57
2021/12/19 00:42:28;;;;;;;10.97;3.30;;;;;;;;;;5069573;28;20048;-57
2021/12/19 00:44:54;;;;;;;14.18;4.65;;;;;;;;;;5056323;28;20170;-57
2021/12/19 00:47:21;;;;;;;16.17;4.47;;;;;;;;;;5076585;28;20060;-56
2021/12/19 00:49:47;;;;;;;15.32;5.40;;;;;;;;;;5065616;28;20080;-58
2021/12/19 00:52:15;;;;;;;16.20;5.45;;;;;;;;;;5061478;28;20052;-58
2021/12/19 00:54:41;;;;;;;20.83;6.18;;;;;;;;;;5065787;28;20048;-58
2021/12/19 00:57:09;;;;;;;18.85;6.07;;;;;;;;;;5071373;28;20060;-57
2021/12/19 00:59:36;;;;;;;16.50;6.20;;;;;;;;;;5084228;28;20135;-56
2021/12/19 01:02:06;;;;;;;11.07;3.80;;;;;;;;;;5069403;28;20127;-57
2021/12/19 01:04:32;;;;;;;20.38;5.80;;;;;;;;;;5064739;28;20057;-58
2021/12/19 01:07:01;;;;;;;17.52;6.10;;;;;;;;;;5066781;28;20056;-57
2021/12/19 01:09:27;;;;;;;17.30;5.95;;;;;;;;;;5065054;28;20055;-57
2021/12/19 01:11:54;;;;;;;14.70;4.78;;;;;;;;;;5069003;28;20049;-57
2021/12/19 01:14:22;;;;;;;17.77;5.53;;;;;;;;;;5064840;28;20048;-58
2021/12/19 01:16:50;;;;;;;18.53;5.87;;;;;;;;;;5068347;28;20068;-58
2021/12/19 01:19:17;;;;;;;17.70;5.50;;;;;;;;;;5064960;28;20353;-58
2021/12/19 01:21:44;;;;;;;19.23;5.95;;;;;;;;;;5068310;28;20060;-58
2021/12/19 01:24:10;;;;;;;23.27;6.75;;;;;;;;;;5068262;28;20055;-58
2021/12/19 01:26:37;;;;;;;18.33;5.30;;;;;;;;;;5063803;28;20055;-57
2021/12/19 01:29:03;;;;;;;14.77;5.38;;;;;;;;;;5068526;28;20117;-58
2021/12/19 01:31:31;;;;;;;15.70;5.28;;;;;;;;;;5064607;28;20056;-58
2021/12/19 01:33:58;;;;;;;16.63;5.17;;;;;;;;;;5068267;28;20136;-58
2021/12/19 01:36:24;;;;;;;16.92;5.45;;;;;;;;;;5063698;28;20110;-57
2021/12/19 01:38:51;;;;;;;20.77;5.95;;;;;;;;;;5067885;28;20109;-58
2021/12/19 01:41:18;;;;;;;13.75;4.97;;;;;;;;;;5062013;28;20056;-58
2021/12/19 01:43:44;;;;;;;17.33;5.13;;;;;;;;;;5067228;28;20085;-58
2021/12/19 01:46:11;;;;;;;21.83;5.85;;;;;;;;;;5064070;28;20103;-58
2021/12/19 01:48:39;;;;;;;19.30;5.63;;;;;;;;;;5068148;28;20541;-58
2021/12/19 01:51:05;;;;;;;21.70;6.57;;;;;;;;;;5060361;28;20053;-57
2021/12/19 01:53:32;;;;;;;13.27;5.50;;;;;;;;;;5050911;28;20060;-57
2021/12/19 01:55:58;;;;;;;14.70;5.90;;;;;;;;;;5047881;28;20064;-59
2021/12/19 01:58:27;;;;;;;12.75;3.58;;;;;;;;;;5068009;28;20048;-58
2021/12/19 02:00:55;;;;;;;19.05;5.32;;;;;;;;;;5064248;28;20059;-53
2021/12/19 02:03:23;;;;;;;15.13;4.97;;;;;;;;;;5069321;28;20044;-58
2021/12/19 02:05:51;;;;;;;17.98;5.90;;;;;;;;;;5067797;28;20075;-57
2021/12/19 02:08:17;;;;;;;19.83;5.20;;;;;;;;;;5064495;28;20482;-58
2021/12/19 02:10:44;;;;;;;16.13;4.80;;;;;;;;;;5064069;28;20060;-58
2021/12/19 02:13:12;;;;;;;15.57;4.65;;;;;;;;;;5060407;28;20129;-58
2021/12/19 02:15:40;;;;;;;13.98;5.05;;;;;;;;;;5064163;28;20056;-57
2021/12/19 02:18:07;;;;;;;15.85;3.90;;;;;;;;;;5059177;28;20058;-58
2021/12/19 02:20:36;;;;;;;13.50;4.45;;;;;;;;;;5068547;28;20059;-58
2021/12/19 02:23:05;;;;;;;12.68;4.03;;;;;;;;;;5064964;28;20208;-58
2021/12/19 02:25:32;;;;;;;11.95;3.67;;;;;;;;;;5070146;28;20040;-57
2021/12/19 02:27:59;;;;;;;14.30;4.53;;;;;;;;;;5065063;28;20052;-58
2021/12/19 02:30:26;;;;;;;12.73;3.85;;;;;;;;;;5067353;28;20099;-58
2021/12/19 02:32:52;;;;;;;12.93;4.40;;;;;;;;;;5063265;28;20084;-57
2021/12/19 02:35:23;;;;;;;14.32;4.53;;;;;;;;;;5066562;28;20052;-58
2021/12/19 02:48:09;;;;;;;13.27;4.25;;;;;;;;;;5050934;28;20048;-58
2021/12/19 02:48:56;;;;;;;17.85;5.80;;;;;;;;;;5062676;28;20068;-59
2021/12/19 02:51:23;;;;;;;13.32;4.32;;;;;;;;;;5066096;28;20079;-59
2021/12/19 02:53:51;;;;;;;15.73;4.45;;;;;;;;;;5062334;28;20080;-58
2021/12/19 02:56:19;;;;;;;13.88;4.25;;;;;;;;;;5065454;28;20053;-58
2021/12/19 02:58:46;;;;;;;16.20;5.20;;;;;;;;;;5062724;28;20126;-58
2021/12/19 03:03:42;;;;;;;14.90;5.10;;;;;;;;;;5059649;22;20109;-58
2021/12/19 03:06:08;;;;;;;14.40;5.03;;;;;;;;;;5041726;28;20053;-58
2021/12/19 03:08:36;;;;;;;14.93;4.70;;;;;;;;;;5022976;28;20059;-58
2021/12/19 03:19:12;;;;;;;13.55;4.75;;;;;;;;;;5043373;28;20053;-58
2021/12/19 03:21:41;;;;;;;11.48;4.53;;;;;;;;;;5021703;28;20060;-58
2021/12/19 03:24:07;;;;;;;16.77;5.55;;;;;;;;;;5042811;28;20084;-59
2021/12/19 03:26:35;;;;;;;9.93;4.18;;;;;;;;;;5038412;28;20080;-58
2021/12/19 03:29:02;;;;;;;16.30;4.90;;;;;;;;;;5043175;28;20057;-58
2021/12/19 03:31:28;;;;;;;12.52;4.53;;;;;;;;;;5021843;28;20355;-58
2021/12/19 03:33:55;;;;;;;13.35;4.82;;;;;;;;;;5025838;28;20061;-58
2021/12/19 03:36:21;;;;;;;14.90;5.13;;;;;;;;;;5026435;28;20148;-58
2021/12/19 03:38:49;;;;;;;15.73;5.32;;;;;;;;;;5021708;28;20084;-59
2021/12/19 03:41:19;;;;;;;15.45;5.45;;;;;;;;;;5042894;28;20149;-54
2021/12/19 03:43:47;;;;;;;13.60;4.50;;;;;;;;;;5021980;28;20049;-59
2021/12/19 03:46:14;;;;;;;13.30;4.47;;;;;;;;;;5043430;28;20045;-58
2021/12/19 03:48:40;;;;;;;14.20;5.05;;;;;;;;;;5038835;28;20156;-58
2021/12/19 03:51:07;;;;;;;13.60;4.47;;;;;;;;;;5042464;28;20057;-57
2021/12/19 03:53:34;;;;;;;13.52;4.70;;;;;;;;;;5023282;28;20124;-59
2021/12/19 03:56:00;;;;;;;16.25;5.05;;;;;;;;;;5041547;28;20171;-59
2021/12/19 03:58:27;;;;;;;19.67;6.47;;;;;;;;;;5026675;28;20057;-58
2021/12/19 04:01:00;;;;;;;17.63;5.20;;;;;;;;;;5021573;28;20049;-58
2021/12/19 04:03:28;;;;;;;14.50;5.05;;;;;;;;;;5024277;28;20056;-59
2021/12/19 04:05:55;;;;;;;13.80;4.82;;;;;;;;;;5037089;28;20061;-58
2021/12/19 04:08:21;;;;;;;15.80;5.05;;;;;;;;;;5024284;28;20076;-58
2021/12/19 04:10:48;;;;;;;15.48;5.05;;;;;;;;;;5038219;28;20083;-59
2021/12/19 04:13:16;;;;;;;14.15;4.97;;;;;;;;;;5028077;28;20152;-57
2021/12/19 04:15:43;;;;;;;13.05;4.60;;;;;;;;;;5029015;28;20072;-58
2021/12/19 04:18:11;;;;;;;15.65;5.00;;;;;;;;;;5026953;28;20037;-59
2021/12/19 04:20:37;;;;;;;11.77;4.17;;;;;;;;;;5030571;28;20157;-58
2021/12/19 04:23:04;;;;;;;14.90;4.72;;;;;;;;;;5040714;28;20060;-58
2021/12/19 04:25:31;;;;;;;16.73;5.60;;;;;;;;;;5051219;28;20160;-58
2021/12/19 04:27:57;;;;;;;14.40;5.80;;;;;;;;;;5052023;28;20139;-58
2021/12/19 04:30:25;;;;;;;17.67;4.82;;;;;;;;;;5048074;28;20053;-58
2021/12/19 04:33:00;;;;;;;13.80;4.85;;;;;;;;;;5042858;28;20057;-58
2021/12/19 04:35:31;;;;;;;10.68;4.10;;;;;;;;;;5046324;28;20089;-59
2021/12/19 04:41:01;;;;;;;12.60;4.05;;;;;;;;;;5008131;28;20049;-58
2021/12/19 04:52:22;;;;;;;11.10;3.60;;;;;;;;;;5028047;28;20045;-58
2021/12/19 04:55:01;;;;;;;7.45;2.90;;;;;;;;;;5011917;28;20060;-58
2021/12/19 04:57:35;;;;;;;9.32;2.80;;;;;;;;;;5028969;28;20053;-57
2021/12/19 05:00:06;;;;;;;11.45;3.65;;;;;;;;;;5016521;28;20389;-58
2021/12/19 05:02:45;;;;;;;8.18;2.75;;;;;;;;;;5028504;28;20053;-57
2021/12/19 05:05:32;;;;;;;7.88;3.10;;;;;;;;;;5025238;28;20081;-58
2021/12/19 05:16:15;;;;;;;7.97;2.97;;;;;;;;;;5027903;28;20056;-58
2021/12/19 05:18:44;;;;;;;8.60;3.20;;;;;;;;;;5025516;28;20064;-57
2021/12/19 05:21:17;;;;;;;9.32;3.33;;;;;;;;;;5045563;28;20057;-58
2021/12/19 05:24:20;;;;;;;8.35;2.72;;;;;;;;;;5045348;28;20065;-58
2021/12/19 05:26:47;;;;;;;5.55;2.30;;;;;;;;;;5009406;28;20058;-57
2021/12/19 05:29:14;;;;;;;9.35;3.38;;;;;;;;;;5024525;28;20049;-58
2021/12/19 05:31:40;;;;;;;7.75;2.92;;;;;;;;;;5028758;28;20140;-57
2021/12/19 05:34:06;;;;;;;9.00;2.92;;;;;;;;;;5019702;28;20049;-59
2021/12/19 05:47:33;;;;;;;8.02;2.42;;;;;;;;;;5007630;28;20061;-59
2021/12/19 05:49:59;;;;;;;5.90;2.15;;;;;;;;;;5024146;28;20041;-58
2021/12/19 05:52:27;;;;;;;8.20;2.30;;;;;;;;;;5029186;28;20143;-58
2021/12/19 05:54:55;;;;;;;5.93;2.10;;;;;;;;;;5030112;28;22130;-56
2021/12/19 05:57:21;;;;;;;6.05;1.98;;;;;;;;;;5025987;28;20156;-58
2021/12/19 05:59:48;;;;;;;5.82;2.33;;;;;;;;;;5029832;28;20077;-57
2021/12/19 06:02:15;;;;;;;5.90;2.38;;;;;;;;;;5024646;28;20088;-59
2021/12/19 06:04:41;;;;;;;7.38;2.40;;;;;;;;;;5045043;28;20060;-58
2021/12/19 06:07:08;;;;;;;4.97;1.60;;;;;;;;;;5027289;28;20077;-58
2021/12/19 06:09:34;;;;;;;7.28;2.20;;;;;;;;;;5024837;28;20062;-57
2021/12/19 06:12:03;;;;;;;4.43;1.60;;;;;;;;;;5032533;28;20148;-59
2021/12/19 06:14:32;;;;;;;3.45;1.20;;;;;;;;;;5027397;28;20061;-58
2021/12/19 06:16:59;;;;;;;5.22;2.00;;;;;;;;;;5040579;28;20049;-58
2021/12/19 06:19:26;;;;;;;4.80;1.30;;;;;;;;;;5027659;28;20061;-57
2021/12/19 06:21:57;;;;;;;5.53;1.83;;;;;;;;;;5016953;28;20053;-59
2021/12/19 06:24:23;;;;;;;5.90;1.45;;;;;;;;;;5007899;28;20152;-58
2021/12/19 06:26:49;;;;;;;4.03;1.35;;;;;;;;;;5009416;28;20061;-58
2021/12/19 06:29:17;;;;;;;3.13;1.20;;;;;;;;;;5027612;28;20153;-57
2021/12/19 06:31:44;;;;;;;2.53;0.83;;;;;;;;;;5023572;28;20064;-57
2021/12/19 06:34:10;;;;;;;2.67;1.30;;;;;;;;;;5027222;28;20376;-58
2021/12/19 06:36:38;;;;;;;3.15;1.45;;;;;;;;;;5024946;28;20073;-57
2021/12/19 06:39:04;;;;;;;5.20;1.55;;;;;;;;;;5026280;28;20064;-57
2021/12/19 06:41:31;;;;;;;4.00;1.33;;;;;;;;;;5043769;28;20049;-58
2021/12/19 06:43:59;;;;;;;4.28;1.50;;;;;;;;;;5023350;28;20108;-57
2021/12/19 06:46:27;;;;;;;3.17;1.02;;;;;;;;;;5024456;28;20069;-58
2021/12/19 06:48:53;;;;;;;2.30;0.90;;;;;;;;;;5005163;28;20058;-58
2021/12/19 06:51:20;;;;;;;3.28;0.85;;;;;;;;;;5007978;28;20108;-57
2021/12/19 06:53:46;;;;;;;1.40;0.75;;;;;;;;;;5017094;28;20057;-58
2021/12/19 06:56:13;;;;;;;1.73;0.85;;;;;;;;;;5027205;28;20068;-58
2021/12/19 06:58:39;;;;;;;2.90;1.10;;;;;;;;;;5023497;28;20077;-57
2021/12/19 07:01:06;;;;;;;3.47;1.27;;;;;;;;;;5026610;28;20149;-57
2021/12/19 07:03:34;;;;;;;2.83;1.08;;;;;;;;;;5023306;28;20073;-57
2021/12/19 07:06:01;;;;;;;2.00;0.90;;;;;;;;;;5043560;28;20144;-57
2021/12/19 07:08:27;;;;;;;3.03;1.13;;;;;;;;;;5035239;28;20050;-58
2021/12/19 07:10:54;;;;;;;3.25;1.20;;;;;;;;;;5007191;28;20085;-57
2021/12/19 07:13:21;;;;;;;2.88;1.13;;;;;;;;;;5014883;28;20375;-57
2021/12/19 07:15:47;;;;;;;2.72;1.00;;;;;;;;;;5026634;28;20041;-58
2021/12/19 07:18:14;;;;;;;3.40;1.20;;;;;;;;;;5024635;28;20132;-58
2021/12/19 07:20:42;;;;;;;6.18;1.85;;;;;;;;;;5005682;28;20187;-57
2021/12/19 07:23:10;;;;;;;3.58;1.17;;;;;;;;;;5007721;28;20049;-58
2021/12/19 07:25:37;;;;;;;2.42;0.98;;;;;;;;;;5021079;28;20077;-58
2021/12/19 07:28:03;;;;;;;2.95;1.00;;;;;;;;;;5029298;28;20126;-58
2021/12/19 07:30:31;;;;;;;2.35;0.80;;;;;;;;;;5023688;28;20081;-59
2021/12/19 07:32:58;;;;;;;3.63;1.20;;;;;;;;;;5029852;28;20107;-59
2021/12/19 07:35:24;;;;;;;1.77;0.80;;;;;;;;;;5040799;28;20081;-58
2021/12/19 07:37:55;;;;;;;2.65;0.80;;;;;;;;;;5045036;28;20107;-58
2021/12/19 07:40:23;;;;;;;3.88;1.20;;;;;;;;;;5025079;28;20049;-58
2021/12/19 07:42:52;;;;;;;1.55;0.60;;;;;;;;;;5046508;28;20147;-59
2021/12/19 07:45:19;;;;;;;1.83;0.60;;;;;;;;;;5023296;28;20072;-58
2021/12/19 07:47:45;;;;;;;0.77;0.50;;;;;;;;;;5031340;28;20136;-59
2021/12/19 07:50:12;;;;;;;1.23;0.50;;;;;;;;;;5023462;28;20110;-58
2021/12/19 07:52:39;;;;;;;2.30;0.75;;;;;;;;;;5026511;28;20084;-57
2021/12/19 07:55:08;;;;;;;2.05;0.70;;;;;;;;;;5015184;28;20045;-58
2021/12/19 07:57:34;;;;;;;;;;;;;;;;;;5027534;28;20514;-58
2021/12/19 08:00:01;;;;;;;2.17;0.55;;;;;;;;;;5027019;28;19961;-58
2021/12/19 08:02:27;;;;;;;1.83;0.80;;;;;;;;;;5027912;28;20049;-58
2021/12/19 08:04:54;;;;;;;1.98;0.80;;;;;;;;;;5042772;28;20077;-58
2021/12/19 08:07:23;;;;;;;1.63;0.80;;;;;;;;;;5024810;28;20153;-58
2021/12/19 08:10:00;;;;;;;2.17;0.93;;;;;;;;;;5027363;28;20064;-58
2021/12/19 08:12:27;;;;;;;2.72;0.70;;;;;;;;;;5025792;28;20059;-58
2021/12/19 08:14:54;;;;;;;2.70;0.70;;;;;;;;;;5027929;28;20049;-58
2021/12/19 08:17:21;;;;;;;1.20;0.70;;;;;;;;;;5021641;28;20049;-58
2021/12/19 08:19:48;;;;;;;2.45;1.00;;;;;;;;;;5032976;28;20049;-58
2021/12/19 08:22:15;;;;;;;1.92;0.68;;;;;;;;;;5025160;28;20048;-58
2021/12/19 08:24:42;;;;;;;1.38;0.70;;;;;;;;;;5029197;28;20061;-57
2021/12/19 08:27:08;;;;;;;1.75;0.70;;;;;;;;;;5020445;28;20151;-58
2021/12/19 08:29:36;;;;;;;2.10;0.80;;;;;;;;;;5039264;28;20121;-58
2021/12/19 08:32:04;;;;;;;1.37;0.60;;;;;;;;;;5010862;28;20136;-58
2021/12/19 08:34:30;;;;;;;1.88;0.77;;;;;;;;;;5025991;28;20294;-58
2021/12/19 08:36:57;;;;;;;1.88;0.73;;;;;;;;;;5021458;28;20140;-58
2021/12/19 08:39:24;;;;;;;2.25;0.80;;;;;;;;;;5041994;28;20059;-58
2021/12/19 08:41:50;;;;;;;3.90;0.75;;;;;;;;;;5019121;28;20110;-58
2021/12/19 08:44:17;;;;;;;1.95;0.68;;;;;;;;;;5022783;28;20062;-58
2021/12/19 08:46:45;;;;;;;1.77;0.70;;;;;;;;;;5003610;28;20068;-58
2021/12/19 08:49:12;;;;;;;2.10;0.60;;;;;;;;;;5022949;28;20060;-58
2021/12/19 08:51:39;;;;;;;2.58;0.70;;;;;;;;;;5007733;28;20167;-57
2021/12/19 08:54:09;;;;;;;2.85;0.77;;;;;;;;;;5039363;28;20054;-58
2021/12/19 08:56:35;;;;;;;2.03;0.80;;;;;;;;;;5043390;28;20057;-58
2021/12/19 08:59:02;;;;;;;2.17;0.80;;;;;;;;;;5039423;28;20053;-58
2021/12/19 09:01:31;;;;;;;1.73;0.65;;;;;;;;;;5045913;28;20125;-58
2021/12/19 09:03:59;;;;;;;0.82;0.52;;;;;;;;;;5027723;28;20117;-58
2021/12/19 09:06:25;;;;;;;0.73;0.43;;;;;;;;;;5025458;28;20077;-58
2021/12/19 09:08:53;;;;;;;2.03;0.60;;;;;;;;;;5033910;28;20331;-58
2021/12/19 09:11:19;;;;;;;1.65;0.60;;;;;;;;;;5046175;28;20061;-58
2021/12/19 09:13:46;;;;;;;3.45;0.60;;;;;;;;;;5033119;28;20061;-58
2021/12/19 09:16:13;;;;;;;1.30;0.60;;;;;;;;;;5008808;28;20058;-58
2021/12/19 09:18:39;;;;;;;2.30;0.80;;;;;;;;;;5011595;28;20053;-58
2021/12/19 09:21:07;;;;;;;1.75;0.70;;;;;;;;;;5045328;28;20077;-58
2021/12/19 09:23:33;;;;;;;1.87;0.70;;;;;;;;;;5024470;28;20057;-58
2021/12/19 09:26:00;;;;;;;1.60;0.63;;;;;;;;;;5028370;28;20053;-57
2021/12/19 09:28:27;;;;;;;0.65;0.40;;;;;;;;;;5040573;28;20116;-59
2021/12/19 09:30:53;;;;;;;1.38;0.65;;;;;;;;;;5025324;28;20068;-58
2021/12/19 09:33:20;;;;;;;2.00;0.85;;;;;;;;;;5008640;28;20096;-57
2021/12/19 09:35:47;;;;;;;1.75;0.90;;;;;;;;;;5040571;28;20132;-58
2021/12/19 09:38:15;;;;;;;2.20;0.85;;;;;;;;;;5028409;28;20077;-58
2021/12/19 09:40:43;;;;;;;1.90;0.90;;;;;;;;;;5007598;28;20077;-58
2021/12/19 09:43:31;;;;;;;3.45;0.98;;;;;;;;;;5008409;28;20057;-58
2021/12/19 09:45:58;;;;;;;1.13;0.73;;;;;;;;;;5021218;28;20069;-58
2021/12/19 09:48:25;;;;;;;2.08;0.60;;;;;;;;;;5029285;28;20077;-58
2021/12/19 09:50:51;;;;;;;1.67;0.90;;;;;;;;;;5025345;28;20133;-57
2021/12/19 09:53:19;;;;;;;2.65;1.13;;;;;;;;;;5027908;28;20262;-57
2021/12/19 09:55:46;;;;;;;5.63;1.75;;;;;;;;;;5023042;28;20077;-58
2021/12/19 09:58:15;;;;;;;2.08;1.05;;;;;;;;;;5028418;28;20168;-57
2021/12/19 10:00:41;;;;;;;;;;;;;;;;;;5024310;28;20089;-57
2021/12/19 10:03:10;;;;;;;0.90;0.38;;;;;;;;;;5044294;28;19952;-57
2021/12/19 10:05:37;;;;;;;0.95;0.40;;;;;;;;;;5024407;28;20099;-57
2021/12/19 10:08:04;;;;;;;1.45;0.50;;;;;;;;;;5028382;28;20100;-58
2021/12/19 10:10:42;;;;;;;3.38;0.95;;;;;;;;;;5024233;28;20045;-58
2021/12/19 10:13:09;;;;;;;1.10;0.70;;;;;;;;;;5044772;28;20073;-58
2021/12/19 10:15:37;;;;;;;2.15;0.98;;;;;;;;;;5022800;28;20144;-57
2021/12/19 10:18:07;;;;;;;1.88;0.95;;;;;;;;;;5044508;28;20046;-57
2021/12/19 10:20:41;;;;;;;2.17;0.98;;;;;;;;;;5041834;28;20111;-58
2021/12/19 10:23:11;;;;;;;2.30;0.98;;;;;;;;;;5043547;28;20099;-58
2021/12/19 10:25:41;;;;;;;2.95;0.80;;;;;;;;;;5024290;28;20061;-58
2021/12/19 10:28:09;;;;;;;3.17;0.90;;;;;;;;;;5027800;28;20057;-58
2021/12/19 10:30:36;;;;;;;1.88;0.90;;;;;;;;;;5038008;28;20155;-58
2021/12/19 10:33:05;;;;;;;4.47;1.50;;;;;;;;;;5024285;28;20140;-57
2021/12/19 10:35:32;;;;;;;4.05;1.65;;;;;;;;;;5027366;28;20057;-58
2021/12/19 10:38:02;;;;;;;5.57;1.65;;;;;;;;;;5023890;28;20079;-58
2021/12/19 10:40:29;;;;;;;9.07;2.50;;;;;;;;;;5026989;28;20116;-58
2021/12/19 10:43:00;;;;;;;4.65;1.77;;;;;;;;;;5039518;28;20108;-57
2021/12/19 10:45:32;;;;;;;6.78;1.75;;;;;;;;;;5025831;28;20446;-58
2021/12/19 10:48:12;;;;;;;7.38;2.00;;;;;;;;;;5022746;28;20053;-58
2021/12/19 10:50:46;;;;;;;5.22;1.58;;;;;;;;;;5027129;28;20061;-57
2021/12/19 10:53:15;;;;;;;3.67;1.40;;;;;;;;;;5009949;28;20050;-58
2021/12/19 10:55:43;;;;;;;6.93;1.92;;;;;;;;;;5006955;28;20108;-58
2021/12/19 10:58:34;;;;;;;4.00;1.42;;;;;;;;;;5015295;28;20068;-58
2021/12/19 11:01:05;;;;;;;5.70;1.50;;;;;;;;;;4996849;28;20068;-58
2021/12/19 11:03:39;;;;;;;7.53;1.60;;;;;;;;;;5002837;28;20077;-58
2021/12/19 11:06:16;;;;;;;4.35;1.58;;;;;;;;;;5006978;28;20053;-58
2021/12/19 11:08:43;;;;;;;3.38;1.10;;;;;;;;;;5033379;28;20174;-59
2021/12/19 11:11:11;;;;;;;4.60;1.45;;;;;;;;;;5026336;28;20077;-58
2021/12/19 11:13:38;;;;;;;6.40;1.80;;;;;;;;;;5020588;28;20102;-58
2021/12/19 11:16:06;;;;;;;12.98;1.90;;;;;;;;;;5027628;28;20112;-58
2021/12/19 11:18:32;;;;;;;6.22;2.17;;;;;;;;;;5024634;28;20049;-58
2021/12/19 11:20:59;;;;;;;7.60;1.60;;;;;;;;;;5043307;28;20117;-57
2021/12/19 11:23:26;;;;;;;4.72;1.73;;;;;;;;;;5038540;28;20115;-57
2021/12/19 11:25:54;;;;;;;3.50;1.30;;;;;;;;;;5026302;28;20069;-58
2021/12/19 11:28:20;;;;;;;6.93;1.83;;;;;;;;;;5019532;28;20769;-58
2021/12/19 11:30:47;;;;;;;6.22;1.83;;;;;;;;;;5006681;28;20065;-57
2021/12/19 11:33:20;;;;;;;10.60;2.65;;;;;;;;;;5003837;28;20140;-58
2021/12/19 11:35:47;;;;;;;6.15;1.70;;;;;;;;;;5025759;28;20060;-58
2021/12/19 11:38:18;;;;;;;8.00;2.28;;;;;;;;;;5042819;28;20147;-58
2021/12/19 11:40:44;;;;;;;6.28;2.55;;;;;;;;;;5024377;28;20077;-58
2021/12/19 11:43:12;;;;;;;8.95;2.38;;;;;;;;;;5043254;28;20068;-57
2021/12/19 11:45:42;;;;;;;6.45;2.53;;;;;;;;;;5038501;28;20119;-58
2021/12/19 11:48:17;;;;;;;4.88;1.92;;;;;;;;;;5027134;28;20049;-58
2021/12/19 11:50:48;;;;;;;6.50;2.30;;;;;;;;;;5023900;28;20045;-58
2021/12/19 11:53:22;;;;;;;11.93;3.33;;;;;;;;;;5043569;28;20045;-58
2021/12/19 11:55:49;;;;;;;8.23;2.80;;;;;;;;;;5016996;28;20057;-58
2021/12/19 11:58:22;;;;;;;8.05;2.70;;;;;;;;;;5022815;28;20084;-57
2021/12/19 12:00:51;;;;;;;9.50;2.40;;;;;;;;;;5031859;28;20050;-58
2021/12/19 12:03:21;;;;;;;11.77;2.30;;;;;;;;;;5025365;28;20041;-58
2021/12/19 12:05:50;;;;;;;4.13;1.38;;;;;;;;;;5021215;28;20058;-58
2021/12/19 12:08:16;;;;;;;;;;;;;;;;;;5026661;28;20059;-58
2021/12/19 12:11:01;;;;;;;9.13;1.92;;;;;;;;;;5013293;28;19925;-58
2021/12/19 12:13:31;;;;;;;4.68;1.38;;;;;;;;;;5021602;28;20107;-58
2021/12/19 12:16:04;;;;;;;5.63;1.55;;;;;;;;;;5038687;28;20140;-58
2021/12/19 12:18:31;;;;;;;4.95;1.52;;;;;;;;;;5042492;28;20081;-58
2021/12/19 12:21:10;;;;;;;4.07;1.70;;;;;;;;;;5014277;28;20161;-58
2021/12/19 12:23:37;;;;;;;7.15;1.45;;;;;;;;;;5005613;28;20050;-58
2021/12/19 12:26:18;;;;;;;4.50;1.40;;;;;;;;;;5009316;28;20136;-58
2021/12/19 12:28:45;;;;;;;5.22;1.50;;;;;;;;;;5024764;28;20049;-58
2021/12/19 12:31:12;;;;;;;4.13;1.58;;;;;;;;;;5038448;28;20120;-58
2021/12/19 12:33:42;;;;;;;4.72;1.75;;;;;;;;;;5043217;28;20103;-58
2021/12/19 12:36:10;;;;;;;4.82;1.77;;;;;;;;;;5025854;28;20057;-57
2021/12/19 12:38:37;;;;;;;7.22;1.92;;;;;;;;;;5029623;28;20064;-58
2021/12/19 12:41:09;;;;;;;5.97;1.85;;;;;;;;;;5042409;28;20089;-58
2021/12/19 12:43:39;;;;;;;5.72;1.58;;;;;;;;;;5046175;28;20060;-58
2021/12/19 12:46:07;;;;;;;4.22;1.40;;;;;;;;;;5025800;28;20057;-58
2021/12/19 12:48:48;;;;;;;4.15;1.90;;;;;;;;;;5046125;28;20052;-58
2021/12/19 12:51:24;;;;;;;4.22;1.60;;;;;;;;;;5025148;28;20111;-58
2021/12/19 12:53:52;;;;;;;7.70;1.95;;;;;;;;;;5009509;28;20149;-58
2021/12/19 12:56:21;;;;;;;7.00;1.90;;;;;;;;;;5009387;28;20050;-58
2021/12/19 12:58:49;;;;;;;5.20;1.73;;;;;;;;;;5044978;28;20115;-58
2021/12/19 13:01:17;;;;;;;7.53;1.70;;;;;;;;;;5029283;28;20053;-58
2021/12/19 13:04:00;;;;;;;6.83;1.80;;;;;;;;;;5024598;28;20129;-57
2021/12/19 13:06:38;;;;;;;6.57;1.70;;;;;;;;;;5029594;28;20072;-57
2021/12/19 13:09:09;;;;;;;6.57;1.98;;;;;;;;;;5025938;28;20144;-58
2021/12/19 13:11:36;;;;;;;5.43;2.05;;;;;;;;;;5047490;28;20053;-57
2021/12/19 13:14:10;;;;;;;8.77;2.00;;;;;;;;;;5034769;28;20049;-58
2021/12/19 13:16:41;;;;;;;6.93;1.90;;;;;;;;;;5047824;28;20080;-58
2021/12/19 13:19:07;;;;;;;5.03;1.80;;;;;;;;;;5043646;28;20060;-60
2021/12/19 13:21:49;;;;;;;6.72;1.80;;;;;;;;;;5029995;28;20143;-58
2021/12/19 13:24:21;;;;;;;5.05;2.10;;;;;;;;;;5025206;28;20080;-58
2021/12/19 13:26:47;;;;;;;6.45;1.90;;;;;;;;;;5009981;28;20128;-57
2021/12/19 13:29:18;;;;;;;7.88;1.80;;;;;;;;;;5006788;28;20041;-57
2021/12/19 13:31:45;;;;;;;10.90;2.00;;;;;;;;;;5009723;28;20058;-58
2021/12/19 13:34:13;;;;;;;6.40;1.80;;;;;;;;;;5017349;28;20060;-58
2021/12/19 13:36:40;;;;;;;8.77;2.25;;;;;;;;;;5029205;28;20054;-57
2021/12/19 13:39:17;;;;;;;11.43;2.80;;;;;;;;;;5021377;28;20053;-58
2021/12/19 13:41:46;;;;;;;6.80;2.00;;;;;;;;;;5027915;28;20068;-57
2021/12/19 13:44:12;;;;;;;5.80;1.92;;;;;;;;;;5024062;28;20407;-58
2021/12/19 13:46:39;;;;;;;4.13;1.63;;;;;;;;;;5044343;28;20057;-57
2021/12/19 13:49:05;;;;;;;7.35;1.92;;;;;;;;;;5041539;28;20069;-58
2021/12/19 13:51:34;;;;;;;5.15;1.70;;;;;;;;;;5044768;28;20064;-57
2021/12/19 13:54:02;;;;;;;6.82;2.00;;;;;;;;;;5041069;28;20069;-58
2021/12/19 13:56:30;;;;;;;4.85;1.65;;;;;;;;;;5028376;28;20057;-57
2021/12/19 13:58:59;;;;;;;4.50;1.33;;;;;;;;;;5024263;28;20063;-58
2021/12/19 14:01:27;;;;;;;3.63;1.52;;;;;;;;;;5027969;28;20127;-57
2021/12/19 14:03:56;;;;;;;5.28;1.80;;;;;;;;;;5027640;28;20076;-58
2021/12/19 14:06:24;;;;;;;9.27;1.45;;;;;;;;;;5015470;28;20057;-57
2021/12/19 14:08:54;;;;;;;4.20;1.80;;;;;;;;;;5044892;28;20115;-58
2021/12/19 14:11:22;;;;;;;3.47;1.50;;;;;;;;;;5006726;28;20050;-58
2021/12/19 14:14:12;;;;;;;4.03;1.40;;;;;;;;;;5024495;28;20054;-58
2021/12/19 14:16:44;;;;;;;7.90;1.70;;;;;;;;;;5018389;28;20080;-58
2021/12/19 14:19:21;;;;;;;5.50;1.27;;;;;;;;;;5044628;28;20045;-58
2021/12/19 14:21:49;;;;;;;2.88;1.20;;;;;;;;;;5040543;28;20049;-58
2021/12/19 14:24:20;;;;;;;3.17;1.10;;;;;;;;;;5044217;28;20073;-58
2021/12/19 14:26:47;;;;;;;4.53;1.58;;;;;;;;;;5037794;28;20045;-58
2021/12/19 14:29:18;;;;;;;4.40;1.15;;;;;;;;;;5027311;28;20145;-57
2021/12/19 14:31:50;;;;;;;3.55;1.45;;;;;;;;;;5009563;28;20053;-58
2021/12/19 14:34:18;;;;;;;3.92;1.58;;;;;;;;;;5007057;28;20054;-58
2021/12/19 14:36:44;;;;;;;6.22;1.70;;;;;;;;;;5008669;28;20091;-58
2021/12/19 14:39:12;;;;;;;5.25;1.38;;;;;;;;;;5026999;28;20117;-59
2021/12/19 14:41:41;;;;;;;3.42;1.23;;;;;;;;;;5021229;28;20053;-57
2021/12/19 14:44:17;;;;;;;3.83;1.00;;;;;;;;;;5026124;28;20053;-57
2021/12/19 14:46:43;;;;;;;6.82;1.60;;;;;;;;;;5021096;28;20057;-57
2021/12/19 14:49:12;;;;;;;5.05;1.50;;;;;;;;;;5027884;28;20057;-58
2021/12/19 14:51:38;;;;;;;2.15;1.20;;;;;;;;;;5023732;28;20069;-58
2021/12/19 14:54:05;;;;;;;5.82;1.70;;;;;;;;;;5018206;28;20061;-58
2021/12/19 14:56:31;;;;;;;4.65;1.70;;;;;;;;;;5022609;28;20579;-57
2021/12/19 14:58:59;;;;;;;4.28;1.55;;;;;;;;;;5043508;28;20083;-58
2021/12/19 15:01:27;;;;;;;6.88;1.83;;;;;;;;;;5039582;28;20140;-58
2021/12/19 15:03:55;;;;;;;3.53;1.30;;;;;;;;;;5023672;28;20045;-58
2021/12/19 15:06:24;;;;;;;3.35;1.27;;;;;;;;;;5022174;28;20061;-58
2021/12/19 15:08:51;;;;;;;3.83;1.23;;;;;;;;;;5024873;28;20164;-58
2021/12/19 15:11:18;;;;;;;5.30;1.50;;;;;;;;;;5040191;28;20053;-56
2021/12/19 15:13:46;;;;;;;4.07;1.83;;;;;;;;;;5022328;28;20057;-58
2021/12/19 15:16:13;;;;;;;4.25;1.67;;;;;;;;;;5026332;28;20057;-58
2021/12/19 15:18:40;;;;;;;6.43;2.10;;;;;;;;;;5009380;28;20053;-59
2021/12/19 15:21:06;;;;;;;7.63;2.00;;;;;;;;;;5023013;28;20111;-59
2021/12/19 15:23:35;;;;;;;4.38;1.63;;;;;;;;;;5014017;28;20061;-58
2021/12/19 15:26:03;;;;;;;5.65;1.73;;;;;;;;;;5042622;28;20061;-58
2021/12/19 15:28:29;;;;;;;3.22;1.40;;;;;;;;;;5038861;28;20136;-58
2021/12/19 15:30:57;;;;;;;6.32;1.75;;;;;;;;;;5043053;28;20053;-57
2021/12/19 15:33:25;;;;;;;6.95;1.58;;;;;;;;;;5038197;28;20084;-57
2021/12/19 15:35:51;;;;;;;5.97;1.73;;;;;;;;;;5043107;28;20099;-59
2021/12/19 15:38:18;;;;;;;2.92;1.33;;;;;;;;;;5039056;28;20076;-57
2021/12/19 15:40:46;;;;;;;4.28;1.60;;;;;;;;;;5014781;28;20145;-57
2021/12/19 15:43:13;;;;;;;3.28;1.20;;;;;;;;;;5024949;28;20080;-58